메인 페이지
METAR-TAF:

METAR-TAF

공항 :

Gulf Shores, 앨라배마, 미국

위도: 30-17-23N, 경도: 087-40-18W, 고도: 5m

현재 날씨관측

예보는 20분 전, 18:35시(UTC)에 발표되었습니다.
남남서16kt, 순간 최대 풍속 23kt
온도 23°C
습도 83%
기압 1013 hPa
시정: 11.3km
고도 1200ft 상공 구름 보통
고도 3500ft 상공 구름 보통
고도 5500ft 상공 구름 많음
이슬비

METAR: KJKA 121835Z AUTO 21016G23KT 7SM DZ SCT012 SCT035 BKN055 23/20 A2992 RMK AO2 LTG DSNT S AND SW T02290202

시각: 12:55 (18:55 UTC)


TAF: 누락

4,000개 이상의 공항 관측 자료 및 예보 (METAR 및 TAF 보고).

지도상에서 검색 가능한 기상관측소가 노란 점과 빨간 점으로 표시되어 있습니다.

기상관측소 명을 보려면 표시 위로 마우스를 이동하세요.

날씨 관측과 예보를 보려면 클릭하세요.

지도 변경 : 확대하려면 엑스 표시가 있는 녹색 버튼, 축소하려면 빼기 표시가 있는 녹색 버튼, 다음 페이지의 지도를 보려면 녹색 화살표를 클릭하세요.


METAR-TAF: